Time;durP1;ratioP1;P1;durP2;ratioP2;P2;SDS_P1;SDS_P2;PMS_P1;PMS_P2;Temp;Humidity;BMP_temperature;BMP_pressure;BME280_temperature;BME280_humidity;BME280_pressure;Samples;Min_cycle;Max_cycle;Signal;HPM_P1;HPM_P2
2022/05/26 00:02:12;;;;;;;33.50;22.13;;;;;;;19.97;100.00;99563.75;5012426;28;20225;-63
2022/05/26 00:04:38;;;;;;;39.37;21.97;;;;;;;20.02;100.00;99574.66;5011066;28;20202;-63
2022/05/26 00:07:05;;;;;;;30.13;22.10;;;;;;;20.01;100.00;99570.38;5011885;28;20679;-63
2022/05/26 00:09:32;;;;;;;36.23;23.30;;;;;;;20.00;100.00;99579.16;5011776;28;20624;-63
2022/05/26 00:11:59;;;;;;;33.20;21.23;;;;;;;19.95;100.00;99571.63;5012116;28;20564;-63
2022/05/26 00:14:26;;;;;;;37.10;21.43;;;;;;;19.83;100.00;99581.09;5011924;28;20198;-63
2022/05/26 00:16:53;;;;;;;36.63;21.00;;;;;;;19.75;100.00;99580.72;5011907;28;20202;-62
2022/05/26 00:19:21;;;;;;;37.63;21.97;;;;;;;19.67;100.00;99580.41;5011820;28;20214;-63
2022/05/26 00:21:49;;;;;;;34.47;22.37;;;;;;;19.65;100.00;99579.66;5012108;28;20206;-63
2022/05/26 00:24:18;;;;;;;35.27;22.80;;;;;;;19.58;100.00;99577.56;5011855;28;20684;-63
2022/05/26 00:26:45;;;;;;;33.07;21.67;;;;;;;19.55;100.00;99557.78;5011727;28;20629;-63
2022/05/26 00:29:12;;;;;;;35.80;21.07;;;;;;;19.51;100.00;99560.69;5011873;28;20194;-63
2022/05/26 00:31:40;;;;;;;35.20;21.93;;;;;;;19.43;100.00;99553.38;5011929;28;20591;-63
2022/05/26 00:34:06;;;;;;;43.67;23.03;;;;;;;19.41;100.00;99549.19;5011682;28;20202;-62
2022/05/26 00:36:43;;;;;;;41.93;22.27;;;;;;;19.41;100.00;99560.44;5011672;28;20202;-62
2022/05/26 00:39:13;;;;;;;36.90;23.03;;;;;;;19.36;100.00;99557.25;5009963;28;20229;-62
2022/05/26 00:41:42;;;;;;;36.17;22.20;;;;;;;19.35;100.00;99560.78;5008577;28;20202;-62
2022/05/26 00:44:09;;;;;;;44.60;25.07;;;;;;;19.31;100.00;99559.31;5011031;28;20202;-62
2022/05/26 00:46:40;;;;;;;38.73;22.57;;;;;;;19.32;100.00;99555.78;5011533;28;20576;-62
2022/05/26 00:49:12;;;;;;;36.80;22.87;;;;;;;19.33;100.00;99560.03;5011610;28;20682;-62
2022/05/26 00:51:40;;;;;;;35.33;22.67;;;;;;;19.34;100.00;99553.91;5011213;28;20556;-62
2022/05/26 00:54:12;;;;;;;41.57;23.27;;;;;;;19.34;100.00;99551.31;5011584;28;20605;-62
2022/05/26 00:56:44;;;;;;;32.67;21.87;;;;;;;19.35;100.00;99555.59;5009556;28;20651;-62
2022/05/26 00:59:17;;;;;;;36.60;22.20;;;;;;;19.36;100.00;99552.03;5009371;28;20594;-62
2022/05/26 01:01:45;;;;;;;37.17;22.07;;;;;;;19.39;100.00;99551.84;5009184;28;20206;-62
2022/05/26 01:04:16;;;;;;;36.90;22.20;;;;;;;19.41;100.00;99554.41;5009220;28;20198;-62
2022/05/26 01:06:49;;;;;;;37.70;22.53;;;;;;;19.27;100.00;99526.66;5009183;28;20206;-62
2022/05/26 01:09:16;;;;;;;32.07;21.53;;;;;;;19.42;100.00;99551.69;5008969;28;20748;-62
2022/05/26 01:11:45;;;;;;;34.57;22.30;;;;;;;19.42;100.00;99554.28;5010564;28;20213;-62
2022/05/26 01:14:18;;;;;;;31.40;21.63;;;;;;;19.48;100.00;99550.47;5011117;28;20666;-62
2022/05/26 01:16:57;;;;;;;31.43;21.43;;;;;;;19.44;100.00;99557.63;5010906;28;20678;-62
2022/05/26 01:19:55;;;;;;;37.73;22.37;;;;;;;19.45;100.00;99551.47;5010677;28;20214;-62
2022/05/26 01:22:34;;;;;;;33.60;21.43;;;;;;;19.45;100.00;99541.09;5010732;28;20205;-62
2022/05/26 01:25:24;;;;;;;32.87;21.63;;;;;;;19.46;100.00;99540.16;5010641;28;20213;-62
2022/05/26 01:28:02;;;;;;;33.83;22.70;;;;;;;19.43;100.00;99529.13;5010970;28;20552;-62
2022/05/26 01:30:40;;;;;;;32.60;21.57;;;;;;;19.46;100.00;99541.94;5011021;28;20210;-61
2022/05/26 01:33:29;;;;;;;35.27;23.27;;;;;;;19.42;100.00;99541.28;5010888;28;20670;-62
2022/05/26 01:36:15;;;;;;;32.50;23.63;;;;;;;19.42;100.00;99536.09;5007279;28;20217;-61
2022/05/26 01:38:56;;;;;;;31.57;21.90;;;;;;;19.37;100.00;99538.13;5011003;28;20229;-62
2022/05/26 01:41:41;;;;;;;32.03;21.17;;;;;;;19.36;100.00;99541.66;5008903;28;20263;-62
2022/05/26 01:44:17;;;;;;;38.77;23.13;;;;;;;19.24;100.00;99532.03;5010312;28;20685;-61
2022/05/26 01:46:45;;;;;;;36.33;22.17;;;;;;;19.31;100.00;99539.34;5011178;28;20210;-62
2022/05/26 01:49:22;;;;;;;31.43;22.30;;;;;;;19.30;100.00;99532.47;5010653;28;20194;-62
2022/05/26 01:51:56;;;;;;;31.13;22.17;;;;;;;19.31;100.00;99548.91;5011030;28;20677;-62
2022/05/26 01:54:30;;;;;;;33.63;22.00;;;;;;;19.32;100.00;99541.00;5010644;28;20206;-62
2022/05/26 01:57:03;;;;;;;32.53;21.37;;;;;;;19.28;100.00;99536.97;5011065;28;20603;-62
2022/05/26 01:59:33;;;;;;;37.53;23.07;;;;;;;19.28;100.00;99538.72;5010652;28;20222;-62
2022/05/26 02:02:03;;;;;;;32.03;21.63;;;;;;;19.23;100.00;99535.56;5010795;28;20198;-62
2022/05/26 02:04:37;;;;;;;35.20;22.57;;;;;;;19.15;100.00;99527.44;5010435;28;20288;-62
2022/05/26 02:07:08;;;;;;;33.83;21.77;;;;;;;19.20;100.00;99535.75;5010976;28;20202;-62
2022/05/26 02:09:41;;;;;;;29.73;20.57;;;;;;;19.20;100.00;99556.53;5010477;28;20314;-62
2022/05/26 02:12:13;;;;;;;37.40;22.17;;;;;;;19.15;100.00;99543.03;5010763;28;20755;-62
2022/05/26 02:14:44;;;;;;;35.57;21.93;;;;;;;19.22;100.00;99554.72;5010522;28;20201;-62
2022/05/26 02:17:16;;;;;;;32.10;20.77;;;;;;;19.23;100.00;99548.56;5011204;28;20221;-62
2022/05/26 02:19:48;;;;;;;31.90;21.17;;;;;;;19.21;100.00;99553.03;5009885;28;20694;-62
2022/05/26 02:22:20;;;;;;;28.80;19.10;;;;;;;19.19;100.00;99554.91;5010319;28;20693;-62
2022/05/26 02:24:54;;;;;;;31.50;20.80;;;;;;;19.15;100.00;99561.22;5010597;28;20209;-62
2022/05/26 02:27:21;;;;;;;28.47;20.87;;;;;;;19.06;100.00;99541.84;5010359;28;20202;-62
2022/05/26 02:29:56;;;;;;;37.07;20.93;;;;;;;19.14;100.00;99551.72;5010579;28;20289;-62
2022/05/26 02:32:26;;;;;;;29.80;20.97;;;;;;;19.15;100.00;99553.41;5013288;28;20194;-62
2022/05/26 02:34:58;;;;;;;32.13;20.33;;;;;;;19.14;100.00;99547.38;5013327;28;20209;-62
2022/05/26 02:37:27;;;;;;;28.80;20.80;;;;;;;19.13;100.00;99557.84;5012049;28;20198;-62
2022/05/26 02:39:54;;;;;;;32.23;20.07;;;;;;;19.13;100.00;99560.47;5012384;28;20268;-62
2022/05/26 02:42:24;;;;;;;31.67;20.30;;;;;;;19.12;100.00;99564.00;5012449;28;20202;-62
2022/05/26 02:44:52;;;;;;;33.20;20.63;;;;;;;19.08;100.00;99562.53;5011776;28;20205;-62
2022/05/26 02:47:38;;;;;;;30.87;20.77;;;;;;;19.05;100.00;99558.34;5012536;28;20194;-62
2022/05/26 02:50:20;;;;;;;32.20;20.67;;;;;;;19.04;100.00;99550.63;5013761;28;20194;-62
2022/05/26 02:52:58;;;;;;;32.83;20.13;;;;;;;19.02;100.00;99552.50;5013219;28;20202;-62
2022/05/26 02:55:38;;;;;;;27.70;20.33;;;;;;;19.02;100.00;99547.31;5013345;28;20208;-62
2022/05/26 02:58:12;;;;;;;40.33;21.73;;;;;;;19.02;100.00;99558.53;5013631;28;20202;-62
2022/05/26 03:01:00;;;;;;;38.07;20.37;;;;;;;19.00;100.00;99554.38;5013128;28;20212;-62
2022/05/26 03:03:34;;;;;;;37.53;19.90;;;;;;;18.93;100.00;99553.94;5011636;28;20674;-62
2022/05/26 03:06:06;;;;;;;30.97;19.73;;;;;;;18.93;100.00;99553.09;5013058;28;20268;-62
2022/05/26 03:08:37;;;;;;;28.93;19.47;;;;;;;18.98;100.00;99566.63;5013112;28;20249;-62
2022/05/26 03:11:07;;;;;;;25.17;18.50;;;;;;;18.96;100.00;99568.47;5013111;28;20194;-62
2022/05/26 03:13:34;;;;;;;27.23;18.93;;;;;;;18.92;100.00;99561.78;5013310;28;20209;-62
2022/05/26 03:16:01;;;;;;;31.57;20.23;;;;;;;18.82;100.00;99554.56;5013241;28;22499;-62
2022/05/26 03:18:28;;;;;;;31.03;19.87;;;;;;;18.86;100.00;99570.81;5013257;28;20205;-62
2022/05/26 03:20:57;;;;;;;30.00;19.17;;;;;;;18.84;100.00;99557.91;5012638;28;20233;-62
2022/05/26 03:23:26;;;;;;;31.60;20.27;;;;;;;18.86;100.00;99563.84;5013174;28;20675;-62
2022/05/26 03:25:55;;;;;;;33.17;19.60;;;;;;;18.87;100.00;99564.66;5012737;28;20198;-61
2022/05/26 03:28:22;;;;;;;34.93;17.90;;;;;;;18.85;100.00;99559.59;5009375;28;20210;-62
2022/05/26 03:30:48;;;;;;;33.63;19.90;;;;;;;18.87;100.00;99549.91;5011091;28;20206;-62
2022/05/26 03:33:15;;;;;;;32.67;19.43;;;;;;;18.88;100.00;99538.59;5011572;28;20206;-61
2022/05/26 03:41:12;;;;;;;39.10;20.20;;;;;;;19.01;100.00;99551.66;5012262;28;20198;-62
2022/05/26 03:43:47;;;;;;;32.43;19.27;;;;;;;19.05;100.00;99557.50;5012221;28;20249;-62
2022/05/26 03:46:14;;;;;;;30.33;20.27;;;;;;;19.05;100.00;99565.31;5012117;28;20209;-62
2022/05/26 03:48:41;;;;;;;31.87;20.70;;;;;;;19.08;100.00;99546.94;5012014;28;20563;-62
2022/05/26 03:51:09;;;;;;;29.83;19.73;;;;;;;19.13;100.00;99532.72;5012407;28;20203;-62
2022/05/26 03:53:38;;;;;;;29.43;19.80;;;;;;;19.20;100.00;99538.34;5012455;28;20675;-62
2022/05/26 03:56:06;;;;;;;31.13;20.03;;;;;;;19.21;100.00;99543.47;5012167;28;20685;-62
2022/05/26 03:58:35;;;;;;;36.27;20.67;;;;;;;19.27;100.00;99547.44;5011908;28;20206;-62
2022/05/26 04:01:02;;;;;;;33.00;20.77;;;;;;;19.41;100.00;99549.19;5011919;28;20209;-62
2022/05/26 04:03:29;;;;;;;26.50;18.67;;;;;;;19.52;100.00;99554.53;5012547;28;20288;-62
2022/05/26 04:05:56;;;;;;;30.60;19.47;;;;;;;19.64;100.00;99548.56;5012300;28;20587;-62
2022/05/26 04:08:23;;;;;;;31.10;20.17;;;;;;;19.76;100.00;99540.78;5011761;28;20252;-62
2022/05/26 04:10:52;;;;;;;37.07;22.10;;;;;;;19.91;100.00;99557.97;5012073;28;20209;-62
2022/05/26 04:13:19;;;;;;;34.10;20.70;;;;;;;19.97;100.00;99563.75;5011909;28;20610;-62
2022/05/26 04:15:46;;;;;;;28.80;19.10;;;;;;;20.02;100.00;99557.28;5011689;28;20210;-62
2022/05/26 04:18:13;;;;;;;31.60;18.63;;;;;;;20.16;100.00;99564.19;5011921;28;20206;-62
2022/05/26 04:20:40;;;;;;;30.30;21.07;;;;;;;20.34;100.00;99562.97;5012640;28;20686;-66
2022/05/26 04:23:07;;;;;;;29.13;19.77;;;;;;;20.47;100.00;99569.03;5012348;28;20198;-66
2022/05/26 04:25:34;;;;;;;35.77;19.73;;;;;;;20.61;100.00;99571.53;5012469;28;20202;-66
2022/05/26 04:28:03;;;;;;;31.93;20.13;;;;;;;20.72;100.00;99553.38;5012210;28;20203;-66
2022/05/26 04:30:29;;;;;;;27.00;19.00;;;;;;;20.85;100.00;99548.97;5011973;28;20214;-66
2022/05/26 04:32:57;;;;;;;28.83;19.50;;;;;;;20.98;100.00;99568.94;5012093;28;20232;-66
2022/05/26 04:35:24;;;;;;;30.73;20.27;;;;;;;21.06;100.00;99571.88;5012187;28;20203;-66
2022/05/26 04:37:51;;;;;;;29.40;20.00;;;;;;;21.04;100.00;99558.94;5012529;28;20671;-66
2022/05/26 04:40:18;;;;;;;30.30;19.87;;;;;;;21.26;100.00;99579.16;5008102;28;20227;-66
2022/05/26 04:42:45;;;;;;;29.53;21.07;;;;;;;21.40;100.00;99560.72;5012050;28;20598;-66
2022/05/26 04:45:14;;;;;;;28.63;19.37;;;;;;;21.71;100.00;99570.59;5012037;28;20617;-66
2022/05/26 04:47:41;;;;;;;36.20;19.93;;;;;;;21.94;100.00;99582.81;5010616;28;20217;-66
2022/05/26 04:50:09;;;;;;;29.80;19.27;;;;;;;22.15;100.00;99584.78;5012048;28;20571;-66
2022/05/26 04:52:37;;;;;;;26.03;18.53;;;;;;;22.35;100.00;99586.75;5011802;28;20211;-66
2022/05/26 04:55:05;;;;;;;27.53;20.33;;;;;;;22.48;100.00;99603.16;5011611;28;20760;-66
2022/05/26 04:57:32;;;;;;;32.80;20.50;;;;;;;22.62;100.00;99602.94;5011780;28;20750;-66
2022/05/26 04:59:58;;;;;;;31.33;18.77;;;;;;;22.67;100.00;99593.00;5011797;28;20227;-66
2022/05/26 05:02:27;;;;;;;29.57;19.07;;;;;;;22.58;100.00;99595.47;5011719;28;20209;-66
2022/05/26 05:04:54;;;;;;;28.67;20.27;;;;;;;22.43;100.00;99594.81;5011678;28;20727;-66
2022/05/26 05:07:21;;;;;;;26.33;19.53;;;;;;;22.47;100.00;99598.88;5011747;28;20688;-66
2022/05/26 05:09:49;;;;;;;28.77;19.47;;;;;;;22.55;100.00;99599.16;5011412;28;20210;-66
2022/05/26 05:12:18;;;;;;;26.03;18.90;;;;;;;22.56;100.00;99585.09;5011650;28;20195;-66
2022/05/26 05:14:47;;;;;;;26.07;20.27;;;;;;;22.57;100.00;99581.56;5011763;28;20210;-66
2022/05/26 05:17:16;;;;;;;30.03;19.30;;;;;;;22.59;100.00;99584.03;5011626;28;20205;-66
2022/05/26 05:19:46;;;;;;;25.13;18.73;;;;;;;22.61;100.00;99598.69;5011117;28;20217;-66
2022/05/26 05:22:22;;;;;;;30.47;18.00;;;;;;;22.64;100.00;99603.66;5011262;28;20201;-66
2022/05/26 05:24:52;;;;;;;22.83;17.30;;;;;;;22.61;100.00;99598.69;5009189;28;20204;-66
2022/05/26 05:27:24;;;;;;;26.13;16.97;;;;;;;22.58;100.00;99608.53;5011121;28;20216;-66
2022/05/26 05:29:53;;;;;;;25.50;16.60;;;;;;;22.64;100.00;99613.28;5009257;28;20204;-66
2022/05/26 05:32:24;;;;;;;24.50;16.90;;;;;;;22.69;100.00;99606.78;5010597;28;20208;-66
2022/05/26 05:34:59;;;;;;;22.87;16.87;;;;;;;22.72;100.00;99618.78;5011093;28;20213;-66
2022/05/26 05:37:26;;;;;;;27.03;17.07;;;;;;;22.78;100.00;99628.78;5010890;28;20260;-66
2022/05/26 05:39:54;;;;;;;21.83;16.97;;;;;;;22.78;100.00;99623.56;5011122;28;20224;-66
2022/05/26 05:42:21;;;;;;;21.53;17.20;;;;;;;22.87;100.00;99626.28;5011124;28;20203;-66
2022/05/26 05:44:48;;;;;;;25.20;17.43;;;;;;;22.89;100.00;99627.00;5011208;28;20274;-66
2022/05/26 05:47:15;;;;;;;22.80;16.40;;;;;;;22.96;100.00;99620.34;5009941;28;20209;-66
2022/05/26 05:49:42;;;;;;;27.33;17.60;;;;;;;23.01;100.00;99620.81;5011109;28;20682;-66
2022/05/26 05:52:12;;;;;;;26.30;17.37;;;;;;;23.10;100.00;99615.81;5011036;28;20208;-66
2022/05/26 05:54:40;;;;;;;21.83;15.73;;;;;;;23.08;100.00;99629.00;5011149;28;20206;-66
2022/05/26 05:57:07;;;;;;;21.13;15.97;;;;;;;23.10;100.00;99623.69;5010922;28;20198;-66
2022/05/26 05:59:34;;;;;;;21.60;15.97;;;;;;;23.05;100.00;99625.78;5010608;28;20206;-66
2022/05/26 06:02:01;;;;;;;22.53;16.03;;;;;;;23.07;100.00;99626.53;5008349;28;20205;-66
2022/05/26 06:04:28;;;;;;;25.00;17.47;;;;;;;23.09;100.00;99629.84;5010972;28;20657;-66
2022/05/26 06:06:55;;;;;;;17.37;15.43;;;;;;;23.17;100.00;99622.22;5014933;28;20684;-66
2022/05/26 06:09:23;;;;;;;24.60;16.60;;;;;;;23.22;100.00;99625.31;5014104;28;20239;-66
2022/05/26 06:11:50;;;;;;;22.57;16.37;;;;;;;23.24;100.00;99623.41;5014703;28;20206;-66
2022/05/26 06:14:18;;;;;;;24.50;15.33;;;;;;;23.21;100.00;99615.81;5014336;28;20197;-66
2022/05/26 06:16:46;;;;;;;19.63;14.43;;;;;;;23.34;100.00;99621.72;5014054;28;20295;-66
2022/05/26 06:19:14;;;;;;;20.17;14.47;;;;;;;23.44;100.00;99613.06;5014181;28;20258;-66
2022/05/26 06:21:41;;;;;;;23.87;15.67;;;;;;;23.63;100.00;99620.28;5014360;28;20614;-66
2022/05/26 06:24:10;;;;;;;17.73;14.27;;;;;;;23.77;99.67;99604.28;5014672;28;20205;-66
2022/05/26 06:26:38;;;;;;;18.83;13.30;;;;;;;23.98;100.00;99610.38;5013179;28;20263;-66
2022/05/26 06:37:28;;;;;;;20.13;12.63;;;;;;;25.02;92.13;99605.97;5013725;28;20261;-67
2022/05/26 06:39:55;;;;;;;11.17;10.17;;;;;;;25.18;89.89;99604.63;5013696;28;20226;-66
2022/05/26 06:42:25;;;;;;;13.27;10.00;;;;;;;25.24;88.64;99593.59;5013707;28;20205;-66
2022/05/26 06:44:52;;;;;;;11.17;9.83;;;;;;;25.48;85.93;99610.66;5013892;28;20204;-67
2022/05/26 06:47:22;;;;;;;12.10;10.00;;;;;;;25.41;85.31;99593.78;5013711;28;20197;-67
2022/05/26 06:49:49;;;;;;;10.70;9.70;;;;;;;25.72;87.20;99606.84;5013492;28;20190;-67
2022/05/26 06:52:18;;;;;;;14.50;10.97;;;;;;;25.94;84.99;99612.66;5013566;28;20216;-67
2022/05/26 06:54:46;;;;;;;11.13;10.00;;;;;;;26.10;83.11;99612.09;5013647;28;20198;-67
2022/05/26 06:57:17;;;;;;;9.97;8.97;;;;;;;26.21;83.75;99609.34;5013391;28;20197;-67
2022/05/26 06:59:45;;;;;;;10.47;9.53;;;;;;;26.34;83.37;99611.69;5013190;28;20202;-66
2022/05/26 07:02:14;;;;;;;12.23;8.77;;;;;;;26.36;81.55;99599.25;5013166;28;20206;-67
2022/05/26 07:04:42;;;;;;;12.63;10.13;;;;;;;26.60;82.47;99621.47;5013099;28;20728;-66
2022/05/26 07:07:09;;;;;;;10.80;9.70;;;;;;;26.79;81.37;99625.81;5013131;28;20204;-67
2022/05/26 07:09:36;;;;;;;10.50;9.37;;;;;;;26.81;79.77;99626.56;5012846;28;20225;-67
2022/05/26 07:12:03;;;;;;;11.33;8.87;;;;;;;26.89;80.54;99631.91;5013169;28;20197;-67
2022/05/26 07:14:30;;;;;;;9.50;8.23;;;;;;;26.86;79.76;99620.84;5013164;28;20202;-67
2022/05/26 07:16:58;;;;;;;12.73;7.40;;;;;;;27.06;79.67;99627.69;5012321;28;20202;-66
2022/05/26 07:19:25;;;;;;;14.23;7.87;;;;;;;27.33;78.10;99624.25;5011498;28;20220;-67
2022/05/26 07:21:52;;;;;;;15.13;8.70;;;;;;;27.37;78.01;99621.16;5011664;28;20614;-67
2022/05/26 07:24:20;;;;;;;25.97;10.33;;;;;;;27.59;74.54;99630.50;5011607;28;20202;-67
2022/05/26 07:26:48;;;;;;;8.57;7.87;;;;;;;27.75;74.58;99633.31;5011733;28;20206;-66
2022/05/26 07:29:15;;;;;;;8.87;8.17;;;;;;;27.94;74.29;99632.31;5012833;28;20204;-67
2022/05/26 07:31:42;;;;;;;27.57;10.07;;;;;;;28.14;76.00;99639.13;5012349;28;20217;-66
2022/05/26 07:34:11;;;;;;;8.90;7.80;;;;;;;28.28;74.19;99624.53;5012656;28;20690;-68
2022/05/26 07:42:12;;;;;;;8.97;8.07;;;;;;;28.46;73.98;99646.47;5012337;28;20228;-67
2022/05/26 07:44:40;;;;;;;10.00;7.10;;;;;;;28.72;75.34;99641.22;5012690;28;20228;-67
2022/05/26 07:47:09;;;;;;;7.90;7.20;;;;;;;28.90;72.20;99645.44;5012433;28;20206;-68
2022/05/26 07:49:39;;;;;;;9.47;7.30;;;;;;;29.14;68.42;99650.81;5012545;28;20225;-67
2022/05/26 07:52:07;;;;;;;8.47;7.63;;;;;;;29.41;65.64;99654.28;5012442;28;20209;-67
2022/05/26 07:54:34;;;;;;;60.33;10.23;;;;;;;29.69;65.67;99655.69;5005637;28;20446;-71
2022/05/26 07:57:02;;;;;;;6.93;6.43;;;;;;;29.95;64.27;99664.34;5009047;28;20210;-70
2022/05/26 07:59:30;;;;;;;5.63;5.13;;;;;;;30.11;62.54;99652.97;5011578;28;20202;-71
2022/05/26 08:01:58;;;;;;;7.40;5.87;;;;;;;30.28;62.84;99637.91;5007872;28;20260;-70
2022/05/26 08:04:24;;;;;;;6.77;5.93;;;;;;;30.54;61.91;99659.75;5006529;28;20285;-70
2022/05/26 08:06:53;;;;;;;6.47;5.40;;;;;;;30.70;59.93;99670.31;5009164;28;20194;-69
2022/05/26 08:09:21;;;;;;;11.30;6.00;;;;;;;30.83;59.13;99667.97;5009611;28;20241;-69
2022/05/26 08:11:48;;;;;;;9.00;5.23;;;;;;;30.96;59.49;99668.31;5010485;28;20670;-70
2022/05/26 08:14:16;;;;;;;5.88;5.38;;;;;;;31.04;57.03;99672.75;5010407;28;20609;-70
2022/05/26 08:16:43;;;;;;;10.48;6.47;;;;;;;31.07;57.81;99667.94;5010760;28;20213;-70
2022/05/26 08:19:11;;;;;;;10.13;7.20;;;;;;;31.27;57.96;99672.84;5009167;28;20211;-70
2022/05/26 08:21:38;;;;;;;9.93;4.95;;;;;;;31.32;57.23;99650.13;5009198;28;20284;-71
2022/05/26 08:24:07;;;;;;;10.15;4.78;;;;;;;31.54;55.06;99677.72;5009134;28;20682;-69
2022/05/26 08:26:34;;;;;;;7.85;5.07;;;;;;;31.58;54.96;99673.72;5010187;28;20221;-68
2022/05/26 08:29:01;;;;;;;5.13;4.63;;;;;;;31.59;54.13;99672.72;5008228;28;20594;-69
2022/05/26 08:31:28;;;;;;;6.70;4.88;;;;;;;31.78;54.79;99677.59;5009335;28;20202;-69
2022/05/26 08:33:56;;;;;;;5.00;4.50;;;;;;;31.79;53.90;99667.81;5010617;28;20206;-69
2022/05/26 08:36:25;;;;;;;7.15;5.40;;;;;;;31.85;52.75;99667.09;5009401;28;20307;-68
2022/05/26 08:38:55;;;;;;;5.68;5.20;;;;;;;31.78;55.22;99672.28;5008704;28;20202;-68
2022/05/26 08:41:25;;;;;;;4.65;4.35;;;;;;;31.71;52.96;99674.81;5009741;28;20234;-69
2022/05/26 08:43:57;;;;;;;5.38;4.47;;;;;;;31.80;53.99;99664.97;5010031;28;20198;-69
2022/05/26 08:46:28;;;;;;;6.28;4.10;;;;;;;31.86;53.99;99669.56;5009492;28;20214;-67
2022/05/26 08:49:10;;;;;;;5.10;4.60;;;;;;;31.98;52.26;99673.47;5010773;28;20210;-68
2022/05/26 08:51:45;;;;;;;4.15;3.83;;;;;;;32.11;52.34;99663.13;5009883;28;20630;-69
2022/05/26 08:54:21;;;;;;;5.07;4.68;;;;;;;32.37;54.03;99662.75;5009145;28;20296;-68
2022/05/26 08:56:51;;;;;;;4.18;3.88;;;;;;;32.60;50.72;99673.38;5009672;28;20260;-68
2022/05/26 08:59:21;;;;;;;7.68;4.07;;;;;;;32.70;50.61;99673.91;5009171;28;20202;-68
2022/05/26 09:01:48;;;;;;;4.90;3.50;;;;;;;32.82;47.10;99672.47;5010231;28;20693;-68
2022/05/26 09:04:17;;;;;;;3.50;3.20;;;;;;;32.81;45.31;99670.81;5008796;28;20202;-68
2022/05/26 09:15:08;;;;;;;3.08;2.88;;;;;;;33.30;42.65;99675.59;5008921;28;20575;-69
2022/05/26 09:17:37;;;;;;;4.10;3.38;;;;;;;33.41;43.11;99664.50;5007514;28;20217;-69
2022/05/26 09:20:05;;;;;;;2.67;2.47;;;;;;;33.60;40.19;99666.56;5007439;28;20206;-69
2022/05/26 09:22:40;;;;;;;3.53;3.20;;;;;;;33.68;40.62;99664.66;5007885;28;20244;-69
2022/05/26 09:25:13;;;;;;;3.53;3.30;;;;;;;33.88;40.91;99667.53;5009282;28;21206;-69
2022/05/26 09:27:52;;;;;;;2.75;2.55;;;;;;;33.96;40.86;99667.38;5007358;28;20289;-68
2022/05/26 09:30:22;;;;;;;3.38;3.08;;;;;;;33.93;41.83;99665.09;5008998;28;20585;-69
2022/05/26 09:32:49;;;;;;;6.43;2.50;;;;;;;33.81;39.26;99671.13;5008907;28;20206;-67
2022/05/26 09:35:26;;;;;;;2.78;2.58;;;;;;;33.83;38.27;99669.13;5008568;28;20213;-69
2022/05/26 09:37:55;;;;;;;5.05;2.58;;;;;;;33.91;38.65;99671.63;5007804;28;20213;-68
2022/05/26 09:40:28;;;;;;;7.10;3.20;;;;;;;34.02;38.77;99671.97;5010845;28;20213;-69
2022/05/26 09:43:02;;;;;;;4.03;3.30;;;;;;;34.00;39.25;99662.50;5012059;28;20686;-68
2022/05/26 09:45:37;;;;;;;4.47;3.05;;;;;;;33.92;36.94;99670.63;5005950;28;20212;-68
2022/05/26 09:48:15;;;;;;;2.47;2.30;;;;;;;34.08;38.55;99671.22;5012036;28;20349;-68
2022/05/26 09:50:46;;;;;;;3.15;2.95;;;;;;;34.12;39.23;99661.84;5012017;28;20570;-69
2022/05/26 09:53:15;;;;;;;5.75;4.82;;;;;;;34.24;38.98;99667.50;5012516;28;20644;-69
2022/05/26 09:55:46;;;;;;;4.10;3.80;;;;;;;34.34;38.51;99659.19;5012786;28;21294;-69
2022/05/26 09:58:27;;;;;;;7.50;3.28;;;;;;;34.34;37.84;99657.34;5012171;28;20210;-70
2022/05/26 10:00:55;;;;;;;4.18;3.60;;;;;;;34.46;38.98;99654.97;5012262;28;20268;-67
2022/05/26 10:03:32;;;;;;;5.10;3.92;;;;;;;34.55;37.47;99653.78;5012086;28;20224;-69
2022/05/26 10:06:12;;;;;;;8.73;4.07;;;;;;;34.59;37.44;99663.88;5011082;28;20212;-69
2022/05/26 10:08:49;;;;;;;3.92;2.88;;;;;;;34.58;36.96;99664.88;5010744;28;20257;-70
2022/05/26 10:11:36;;;;;;;23.50;4.18;;;;;;;34.55;38.04;99656.47;5011676;28;20570;-68
2022/05/26 10:14:19;;;;;;;3.75;3.45;;;;;;;34.49;38.49;99657.22;5009682;28;20224;-69
2022/05/26 10:16:55;;;;;;;3.95;3.75;;;;;;;34.62;38.64;99663.53;5008673;28;20975;-69
2022/05/26 10:19:36;;;;;;;3.08;2.88;;;;;;;34.71;39.49;99658.84;5010616;28;20689;-68
2022/05/26 10:22:19;;;;;;;3.08;2.88;;;;;;;34.77;37.94;99660.72;5010449;28;20221;-69
2022/05/26 10:25:01;;;;;;;6.55;3.17;;;;;;;34.73;37.88;99665.66;5009047;28;20213;-69
2022/05/26 10:27:39;;;;;;;4.93;3.30;;;;;;;34.80;41.87;99649.69;5010568;28;20206;-68
2022/05/26 10:30:25;;;;;;;4.03;3.03;;;;;;;34.88;35.95;99662.88;5009916;28;20205;-69
2022/05/26 10:33:09;;;;;;;4.53;3.50;;;;;;;34.91;35.96;99656.31;5008074;28;20214;-69
2022/05/26 10:35:44;;;;;;;3.17;2.97;;;;;;;34.96;37.26;99654.69;5009947;28;20209;-68
2022/05/26 10:38:38;;;;;;;4.30;3.45;;;;;;;35.09;37.09;99648.66;5010446;28;20209;-69
2022/05/26 10:41:19;;;;;;;11.90;3.30;;;;;;;35.05;34.51;99648.22;4984587;28;20594;-68
2022/05/26 10:43:52;;;;;;;42.03;6.15;;;;;;;34.92;34.67;99647.31;5007234;28;20213;-68
2022/05/26 10:46:21;;;;;;;5.85;3.38;;;;;;;34.82;33.94;99645.00;5010541;28;20210;-73
2022/05/26 10:48:56;;;;;;;8.40;2.80;;;;;;;34.77;33.77;99634.09;5011950;28;20582;-68
2022/05/26 10:51:30;;;;;;;3.47;3.17;;;;;;;34.90;36.39;99620.84;5009883;28;20685;-66
2022/05/26 10:54:01;;;;;;;2.42;2.20;;;;;;;35.00;34.71;99639.97;5009679;28;20198;-68
2022/05/26 10:56:32;;;;;;;2.88;2.67;;;;;;;34.87;36.03;99637.22;5011232;28;20585;-71
2022/05/26 10:59:07;;;;;;;3.38;2.83;;;;;;;34.95;34.05;99631.75;5009587;28;20226;-70
2022/05/26 11:01:41;;;;;;;3.53;3.22;;;;;;;34.93;35.27;99633.78;5011160;28;20229;-70
2022/05/26 11:04:19;;;;;;;3.50;3.15;;;;;;;34.87;36.36;99623.09;5011832;28;20212;-70
2022/05/26 11:06:48;;;;;;;4.20;2.65;;;;;;;34.90;35.43;99626.19;5009536;28;20213;-70
2022/05/26 11:09:22;;;;;;;3.33;3.10;;;;;;;35.04;36.85;99616.41;5011377;28;20230;-68
2022/05/26 11:11:51;;;;;;;5.35;3.13;;;;;;;35.17;38.62;99619.19;5010385;28;20214;-71
2022/05/26 11:17:26;;;;;;;2.50;2.38;;;;;;;35.08;32.63;99625.66;5009589;28;20204;-68
2022/05/26 11:20:02;;;;;;;5.05;4.60;;;;;;;35.08;33.51;99623.84;5012285;28;20724;-69
2022/05/26 11:22:30;;;;;;;4.60;2.78;;;;;;;35.06;32.06;99625.06;5011646;28;20235;-69
2022/05/26 11:24:59;;;;;;;2.60;2.50;;;;;;;35.08;32.86;99621.16;5012043;28;20212;-71
2022/05/26 11:27:32;;;;;;;4.10;2.97;;;;;;;34.97;32.50;99613.72;5012040;28;20582;-72
2022/05/26 11:30:01;;;;;;;2.92;2.35;;;;;;;34.82;33.87;99621.03;5012600;28;20206;-72
2022/05/26 11:38:19;;;;;;;4.32;2.67;;;;;;;34.93;35.78;99606.34;5011450;28;20351;-70
2022/05/26 11:40:56;;;;;;;3.00;2.80;;;;;;;34.86;34.13;99600.97;5011528;28;20220;-71
2022/05/26 11:43:26;;;;;;;3.67;3.47;;;;;;;34.95;32.73;99605.13;5010493;28;20222;-70
2022/05/26 11:45:54;;;;;;;4.22;3.45;;;;;;;35.09;35.03;99600.66;5011715;28;20548;-71
2022/05/26 11:48:45;;;;;;;3.00;2.80;;;;;;;35.15;36.15;99595.41;5011527;28;20678;-71
2022/05/26 11:51:35;;;;;;;3.75;2.88;;;;;;;35.10;35.88;99600.50;5009589;28;20285;-69
2022/05/26 11:54:03;;;;;;;4.95;3.15;;;;;;;35.06;34.53;99599.19;5008706;28;20281;-72
2022/05/26 11:56:49;;;;;;;4.28;3.47;;;;;;;35.08;34.08;99597.19;5010500;28;20202;-71
2022/05/26 11:59:39;;;;;;;2.97;2.75;;;;;;;35.08;32.98;99596.34;5011517;28;20202;-71
2022/05/26 12:02:33;;;;;;;3.03;2.83;;;;;;;35.10;32.93;99597.00;5011235;28;20222;-72
2022/05/26 12:05:34;;;;;;;2.22;2.13;;;;;;;35.20;35.46;99587.63;5013590;28;20202;-73
2022/05/26 12:08:06;;;;;;;7.90;2.97;;;;;;;35.28;35.47;99584.75;5012137;28;20229;-71
2022/05/26 12:10:41;;;;;;;2.35;2.15;;;;;;;35.19;32.22;99575.28;5011325;28;20231;-72
2022/05/26 12:13:33;;;;;;;3.67;2.20;;;;;;;35.23;35.52;99576.56;5011980;28;20233;-71
2022/05/26 12:16:19;;;;;;;2.40;2.20;;;;;;;35.11;33.37;99575.50;5013449;28;20274;-71